Flight Track Log - Related Links

Times and Time Zones

All times are in EDT time to prevent confusion due to time zone crossing. See the RAX1022 flight status page for this flight to view local times or setup timezone preferences in your user account.

Time Position Orientation Groundspeed Altitude Reporting Facility
EDT Latitude Longitude Course Direction KTS MPH feet Rate Location/Type
Tue 02:08:17 PM 38.1847 -85.8275 278° West 115 132 3,500  Level Indianapolis Center
Tue 02:09:18 PM 38.1747 -85.8808 257° West 126 145 5,200 1,366 Climbing Indianapolis Center
Tue 02:10:20 PM 38.1689 -85.9247 260° West 125 144 6,300 1,113 Climbing Indianapolis Center
Tue 02:11:22 PM 38.1467 -85.9619 233° Southwest 134 154 7,500 829 Climbing Indianapolis Center
Tue 02:12:23 PM 38.1133 -85.9925 216° Southwest 145 167 8,000 244 Climbing Indianapolis Center
Tue 02:13:25 PM 38.0706 -86.0297 214° Southwest 173 199 8,000  Level Indianapolis Center
Tue 02:14:27 PM 38.0214 -86.0611 207° Southwest 191 220 8,000  Level Indianapolis Center
Tue 02:15:29 PM 37.9756 -86.1006 214° Southwest 197 227 8,000  Level Indianapolis Center
Tue 02:16:31 PM 37.9283 -86.1378 212° Southwest 199 229 8,000  Level Indianapolis Center
Tue 02:17:32 PM 37.8814 -86.1744 212° Southwest 198 228 8,000  Level Indianapolis Center
Tue 02:18:34 PM 37.8247 -86.2208 213° Southwest 200 230 8,000  Level Indianapolis Center
Tue 02:19:36 PM 37.7767 -86.2575 211° Southwest 200 230 8,000  Level Indianapolis Center
Tue 02:20:38 PM 37.7292 -86.2964 213° Southwest 200 230 8,000  Level Indianapolis Center
Tue 02:21:39 PM 37.6811 -86.3336 212° Southwest 202 232 8,000  Level Indianapolis Center
Tue 02:22:41 PM 37.6325 -86.3714 212° Southwest 203 234 8,000  Level Indianapolis Center
Tue 02:23:43 PM 37.5847 -86.4072 211° Southwest 200 230 8,000 48 Level Indianapolis Center
Tue 02:24:45 PM 37.5333 -86.4486 213° Southwest 201 231 8,100 48 Climbing Indianapolis Center
Tue 02:25:47 PM 37.4856 -86.4883 213° Southwest 203 234 8,100  Level Indianapolis Center
Tue 02:26:48 PM 37.4369 -86.5256 211° Southwest 204 235 8,100  Level Indianapolis Center
Tue 02:27:50 PM 37.3836 -86.5669 212° Southwest 203 234 8,100  Level Indianapolis Center
Tue 02:28:20 PM 37.3619 -86.5864 216° Southwest 205 236 8,100  Level Memphis Center
Tue 02:29:20 PM 37.3175 -86.6250 215° Southwest 205 236 8,100  Level Memphis Center
Tue 02:30:20 PM 37.2686 -86.6611 210° Southwest 205 236 8,100  Level Memphis Center
Tue 02:30:47 PM 37.2419 -86.6781 207° Southwest 205 236 8,100  Level Memphis Center
Tue 02:31:20 PM 37.2175 -86.6975 212° Southwest 205 236 8,100  Level Memphis Center
Tue 02:31:36 PM 37.2033 -86.7111 217° Southwest 204 235 8,100  Level Memphis Center
Tue 02:32:20 PM 37.1644 -86.7389 210° Southwest 205 236 8,100  Level Memphis Center
Tue 02:32:42 PM 37.1483 -86.7525 214° Southwest 204 235 8,100  Level Memphis Center
Tue 02:33:20 PM 37.1175 -86.7747 210° Southwest 205 236 8,100  Level Memphis Center
Tue 02:33:43 PM 37.0972 -86.7889 209° Southwest 203 234 8,100  Level Memphis Center
Tue 02:34:20 PM 37.0686 -86.8133 214° Southwest 205 236 8,100  Level Memphis Center
Tue 02:34:44 PM 37.0525 -86.8272 215° Southwest 202 232 8,100  Level Memphis Center
Tue 02:35:20 PM 37.0197 -86.8494 208° Southwest 205 236 8,100  Level Memphis Center
Tue 02:35:38 PM 37.0075 -86.8603 215° Southwest 204 235 8,100  Level Memphis Center
Tue 02:36:20 PM 36.9731 -86.8878 213° Southwest 205 236 8,100  Level Memphis Center
Tue 02:36:39 PM 36.9586 -86.8961 205° Southwest 204 235 8,100  Level Memphis Center
Tue 02:37:20 PM 36.9261 -86.9236 214° Southwest 205 236 8,100  Level Memphis Center
Tue 02:37:40 PM 36.9097 -86.9372 214° Southwest 204 235 8,100  Level Memphis Center
Tue 02:38:20 PM 36.8769 -86.9619 211° Southwest 205 236 8,100  Level Memphis Center
Tue 02:38:40 PM 36.8606 -86.9706 203° Southwest 204 235 8,100  Level Memphis Center
Tue 02:39:20 PM 36.8300 -86.9978 215° Southwest 205 236 8,100  Level Memphis Center
Tue 02:39:41 PM 36.8117 -87.0114 211° Southwest 205 236 8,100  Level Memphis Center
Tue 02:40:20 PM 36.7811 -87.0358 213° Southwest 205 236 8,100  Level Memphis Center
Tue 02:40:47 PM 36.7544 -87.0525 207° Southwest 204 235 8,100  Level Memphis Center
Tue 02:41:20 PM 36.7319 -87.0717 214° Southwest 205 236 8,100  Level Memphis Center
Tue 02:41:48 PM 36.7097 -87.0906 214° Southwest 204 235 8,100  Level Memphis Center
Tue 02:42:20 PM 36.6831 -87.1097 210° Southwest 205 236 8,100  Level Memphis Center
Tue 02:42:43 PM 36.6667 -87.1208 209° Southwest 206 237 8,100  Level Memphis Center
Tue 02:43:20 PM 36.6400 -87.1425 213° Southwest 205 236 8,100  Level Memphis Center
Tue 02:43:43 PM 36.6156 -87.1592 209° Southwest 204 235 8,100  Level Memphis Center
Tue 02:44:20 PM 36.5911 -87.1781 212° Southwest 205 236 8,100  Level Memphis Center
Tue 02:44:44 PM 36.5644 -87.2000 213° Southwest 204 235 8,100  Level Memphis Center
Tue 02:45:20 PM 36.5419 -87.2164 210° Southwest 211 243 8,100  Level Memphis Center
Tue 02:46:20 PM 36.4950 -87.2517 211° Southwest 217 250 8,100  Level Memphis Center
Tue 02:47:20 PM 36.4458 -87.2897 212° Southwest 207 238 8,100  Level Memphis Center
Tue 02:48:20 PM 36.3967 -87.3250 210° Southwest 207 238 8,100  Level Memphis Center
Tue 02:49:20 PM 36.3494 -87.3603 211° Southwest 207 238 8,100  Level Memphis Center
Tue 02:50:20 PM 36.3003 -87.3956 210° Southwest 207 238 8,100  Level Memphis Center
Tue 02:51:20 PM 36.2511 -87.4333 212° Southwest 207 238 8,100  Level Memphis Center
Tue 02:52:20 PM 36.2042 -87.4686 211° Southwest 202 232 8,100  Level Memphis Center
Tue 02:53:20 PM 36.1531 -87.5089 212° Southwest 202 232 8,100  Level Memphis Center
Tue 02:54:20 PM 36.1036 -87.5439 210° Southwest 207 238 8,100  Level Memphis Center
Tue 02:55:20 PM 36.0544 -87.5792 210° Southwest 207 238 8,100  Level Memphis Center
Tue 02:56:20 PM 36.0053 -87.6167 212° Southwest 207 238 8,100  Level Memphis Center
Tue 02:57:20 PM 35.9581 -87.6517 211° Southwest 207 238 8,100  Level Memphis Center
Tue 02:58:20 PM 35.9108 -87.6864 211° Southwest 207 238 8,100  Level Memphis Center
Tue 02:59:20 PM 35.8594 -87.7239 211° Southwest 207 238 8,100  Level Memphis Center
Tue 03:00:20 PM 35.8144 -87.7586 212° Southwest 207 238 8,100  Level Memphis Center
Tue 03:01:20 PM 35.7631 -87.7936 209° Southwest 207 238 8,100  Level Memphis Center
Tue 03:02:20 PM 35.7158 -87.8308 213° Southwest 202 232 8,100  Level Memphis Center
Tue 03:03:20 PM 35.6725 -87.8628 211° Southwest 202 232 8,100  Level Memphis Center
Tue 03:04:20 PM 35.6233 -87.8975 210° Southwest 202 232 8,100  Level Memphis Center
Tue 03:05:20 PM 35.5739 -87.9322 210° Southwest 202 232 8,100  Level Memphis Center
Tue 03:06:20 PM 35.5244 -87.9667 210° Southwest 208 239 8,100  Level Memphis Center
Tue 03:07:20 PM 35.4753 -88.0039 212° Southwest 208 239 8,100  Level Memphis Center
Tue 03:08:20 PM 35.4278 -88.0408 212° Southwest 203 234 8,100  Level Memphis Center
Tue 03:09:20 PM 35.3786 -88.0856 217° Southwest 203 234 8,100  Level Memphis Center
Tue 03:10:20 PM 35.3292 -88.1200 210° Southwest 208 239 8,100  Level Memphis Center
Tue 03:11:20 PM 35.2797 -88.1569 211° Southwest 208 239 8,100  Level Memphis Center
Tue 03:12:20 PM 35.2325 -88.1911 211° Southwest 208 239 8,100  Level Memphis Center
Tue 03:13:20 PM 35.1831 -88.2281 211° Southwest 208 239 8,100  Level Memphis Center
Tue 03:14:20 PM 35.1336 -88.2622 209° Southwest 208 239 8,100  Level Memphis Center
Tue 03:15:20 PM 35.0842 -88.2992 211° Southwest 208 239 8,100  Level Memphis Center
Tue 03:16:20 PM 35.0347 -88.3358 211° Southwest 203 234 8,100  Level Memphis Center
Tue 03:17:20 PM 34.9831 -88.3725 210° Southwest 208 239 8,100  Level Memphis Center
Tue 03:18:20 PM 34.9336 -88.4067 210° Southwest 208 239 8,100  Level Memphis Center
Tue 03:19:20 PM 34.8861 -88.4431 212° Southwest 208 239 8,100  Level Memphis Center
Tue 03:20:20 PM 34.8367 -88.4772 210° Southwest 208 239 8,100 -250 Level Memphis Center
Tue 03:21:20 PM 34.7911 -88.5136 213° Southwest 208 239 7,600 -450 Descending Memphis Center
Tue 03:22:20 PM 34.7356 -88.5528 210° Southwest 208 239 7,200 -550 Descending Memphis Center
Tue 03:23:20 PM 34.6839 -88.5892 210° Southwest 214 246 6,500 -600 Descending Memphis Center
Tue 03:24:20 PM 34.6322 -88.6256 210° Southwest 214 246 6,000 -450 Descending Memphis Center
Tue 03:25:20 PM 34.5847 -88.6619 212° Southwest 214 246 5,600 -500 Descending Memphis Center
Tue 03:26:20 PM 34.5372 -88.6981 212° Southwest 208 239 5,000 -700 Descending Memphis Center
Tue 03:27:20 PM 34.4897 -88.7319 210° Southwest 202 232 4,200 -550 Descending Memphis Center
Tue 03:28:20 PM 34.4464 -88.7681 215° Southwest 202 232 3,900 -150 Descending Memphis Center
Tue 03:29:20 PM 34.4008 -88.8014 211° Southwest 202 232 3,900  Level Memphis Center
Tue 03:30:20 PM 34.3636 -88.8247 207° Southwest 186 214 3,900  Level Memphis Center
Tue 03:31:20 PM 34.3222 -88.8558 212° Southwest 181 208 3,900  Level Memphis Center
Tue 03:32:17 PM 34.2744 -88.8892 210° Southwest 179 206 3,900  Level Memphis Center
Tue 03:33:05 PM 34.2394 -88.9125 209° Southwest 179 206 3,900  Level Memphis Center
Tue 03:33:20 PM 34.2269 -88.9153 190° South 175 201 3,900  Level Memphis Center
Tue 03:34:06 PM 34.1958 -88.9408 214° Southwest 180 207 3,900  Level Memphis Center
Tue 03:35:13 PM 34.1442 -88.9744 208° Southwest 180 207 3,900  Level Memphis Center
Tue 03:36:14 PM 34.1006 -89.0050 210° Southwest 179 206 3,900  Level Memphis Center
Tue 03:37:15 PM 34.0569 -89.0308 206° Southwest 181 208 3,900 47 Level Memphis Center
Tue 03:38:22 PM 34.0072 -89.0667 211° Southwest 180 207 4,000  Climbing Memphis Center
Tue 03:39:16 PM 33.9681 -89.0900 206° Southwest 180 207 3,900 -52 Descending Memphis Center
Tue 03:40:17 PM 33.9222 -89.1206 209° Southwest 182 209 3,900  Level Memphis Center
Tue 03:41:24 PM 33.8725 -89.1539 209° Southwest 180 207 3,900  Level Memphis Center
Tue 03:42:20 PM 33.8372 -89.1742 206° Southwest 179 206 3,900  Level Memphis Center
Tue 03:43:20 PM 33.7853 -89.2075 208° Southwest 190 219 3,900  Level Memphis Center
Tue 03:44:20 PM 33.7439 -89.2356 209° Southwest 195 224 3,900  Level Memphis Center
Tue 03:45:20 PM 33.7003 -89.2661 210° Southwest 189 217 3,900  Level Memphis Center
Tue 03:46:20 PM 33.6589 -89.2992 214° Southwest 184 212 3,900  Level Memphis Center
Tue 03:47:20 PM 33.6175 -89.3344 215° Southwest 184 212 3,900  Level Memphis Center
Tue 03:48:20 PM 33.5761 -89.3672 213° Southwest 184 212 3,900  Level Memphis Center
Tue 03:49:20 PM 33.5344 -89.4028 215° Southwest 189 217 3,900  Level Memphis Center
Tue 03:50:20 PM 33.4950 -89.4356 215° Southwest 189 217 3,900  Level Memphis Center
Tue 03:51:20 PM 33.4536 -89.4708 215° Southwest 189 217 3,900 50 Level Memphis Center
Tue 03:52:20 PM 33.4122 -89.5036 213° Southwest 189 217 4,000  Climbing Memphis Center
Tue 03:53:20 PM 33.3706 -89.5389 215° Southwest 189 217 3,900 -50 Descending Memphis Center
Tue 03:54:20 PM 33.3292 -89.5717 213° Southwest 189 217 3,900  Level Memphis Center
Tue 03:55:20 PM 33.2833 -89.5992 207° Southwest 189 217 3,900  Level Memphis Center
Tue 03:56:20 PM 33.2397 -89.6269 208° Southwest 183 211 3,900  Level Memphis Center
Tue 03:57:20 PM 33.1939 -89.6522 205° Southwest 178 205 3,900  Level Memphis Center
Tue 03:58:20 PM 33.1481 -89.6800 207° Southwest 178 205 3,900  Level Memphis Center
Tue 03:59:20 PM 33.1044 -89.7075 208° Southwest 178 205 3,900  Level Memphis Center
Tue 04:00:20 PM 33.0608 -89.7350 208° Southwest 178 205 3,900  Level Memphis Center
Tue 04:01:20 PM 33.0169 -89.7628 208° Southwest 178 205 3,900  Level Memphis Center
Tue 04:02:20 PM 32.9711 -89.7928 209° Southwest 178 205 3,900  Level Memphis Center
Tue 04:03:20 PM 32.9275 -89.8203 208° Southwest 178 205 3,900 50 Level Memphis Center
Tue 04:04:20 PM 32.8817 -89.8478 207° Southwest 178 205 4,000  Climbing Memphis Center
Tue 04:05:20 PM 32.8381 -89.8775 210° Southwest 178 205 3,900 -50 Descending Memphis Center
Tue 04:06:20 PM 32.7942 -89.9075 210° Southwest 183 211 3,900 -100 Level Memphis Center
Tue 04:07:20 PM 32.7506 -89.9397 212° Southwest 183 211 3,700 -300 Descending Memphis Center
Tue 04:08:20 PM 32.7067 -89.9722 212° Southwest 183 211 3,300 -350 Descending Memphis Center
Tue 04:09:20 PM 32.6608 -90.0019 209° Southwest 183 211 3,000 -500 Descending Memphis Center
Tue 04:10:20 PM 32.6172 -90.0342 212° Southwest 183 211 2,300 -500 Descending Memphis Center
Tue 04:11:20 PM 32.5714 -90.0639 209° Southwest 183 211 2,000 -150 Descending Memphis Center
Tue 04:12:20 PM 32.5297 -90.0911 209° Southwest 183 211 2,000 50 Level Memphis Center
Tue 04:13:20 PM 32.4881 -90.1183 209° Southwest 183 211 2,100  Climbing Memphis Center
Tue 04:14:20 PM 32.4442 -90.1406 203° Southwest 178 205 2,000 -100 Descending Memphis Center
Tue 04:15:20 PM 32.4003 -90.1653 205° Southwest 178 205 1,900 -50 Descending Memphis Center
Tue 04:16:20 PM 32.3628 -90.1853 204° Southwest 173 199 1,900 -200 Level Memphis Center
Tue 04:17:20 PM 32.3272 -90.1828 177° South 150 173 1,500 -400 Descending Memphis Center
Tue 04:19:00 PM 32.3333 -90.2167 209° Southwest  Level FlightAware Approximate
Tue 04:26:00 PM 32.3348 -90.2225 209° Southwest  Level Estimated
Tue 04:27:00 PM 32.3333 -90.2167 209° Southwest  Level FlightAware Approximate

Login

Don't have an account? Register now (free) for customized features, flight alerts, and more!